createdAt,value
2018-11-27T00:00:07.072Z,98978.47
2018-11-27T00:02:35.225Z,98993.94
2018-11-27T00:05:04.003Z,98992.56
2018-11-27T00:07:32.599Z,98993.19
2018-11-27T00:10:01.085Z,98839.77
2018-11-27T00:12:29.294Z,98975.77
2018-11-27T00:14:57.489Z,98990.08
2018-11-27T00:17:26.583Z,98996.59
2018-11-27T00:19:55.489Z,98999.39
2018-11-27T00:22:24.585Z,99001.78
2018-11-27T00:24:53.349Z,99005.55
2018-11-27T00:27:21.788Z,99006.02
2018-11-27T00:29:52.037Z,99000.56
2018-11-27T00:32:20.243Z,99002.33
2018-11-27T00:34:48.580Z,99026.84
2018-11-27T00:37:17.127Z,99000.02
2018-11-27T00:39:45.696Z,99000.91
2018-11-27T00:42:14.332Z,98665.95
2018-11-27T00:44:42.519Z,99007.39
2018-11-27T00:47:10.709Z,98898.69
2018-11-27T00:49:38.839Z,98963.67
2018-11-27T00:52:07.255Z,99005.34
2018-11-27T00:54:36.279Z,98985.09
2018-11-27T00:57:04.475Z,99013.82
2018-11-27T00:59:32.852Z,99019.58
2018-11-27T01:02:02.147Z,99016.80
2018-11-27T01:04:30.817Z,99023.11
2018-11-27T01:06:59.038Z,99019.97
2018-11-27T01:09:27.699Z,99023.90
2018-11-27T01:11:55.924Z,98848.84
2018-11-27T01:14:24.136Z,99028.45
2018-11-27T01:16:52.788Z,99021.06
2018-11-27T01:19:20.880Z,99030.52
2018-11-27T01:21:50.575Z,99034.25
2018-11-27T01:24:19.305Z,98955.91
2018-11-27T01:26:47.412Z,99037.97
2018-11-27T01:29:16.013Z,99008.68
2018-11-27T01:31:44.720Z,99039.51
2018-11-27T01:34:12.789Z,99038.17
2018-11-27T01:36:40.945Z,99033.30
2018-11-27T01:39:09.587Z,99045.27
2018-11-27T01:41:38.115Z,99047.03
2018-11-27T01:44:06.624Z,98985.56
2018-11-27T01:46:35.631Z,99043.50
2018-11-27T01:49:04.100Z,99047.06
2018-11-27T01:51:32.466Z,99051.19
2018-11-27T01:54:01.664Z,99032.05
2018-11-27T01:56:30.041Z,99054.52
2018-11-27T01:58:58.465Z,99051.61
2018-11-27T02:01:27.256Z,98985.87
2018-11-27T02:03:55.572Z,99052.86
2018-11-27T02:06:23.795Z,99057.60
2018-11-27T02:08:52.641Z,99055.16
2018-11-27T02:11:20.917Z,98756.30
2018-11-27T02:13:49.569Z,99052.23
2018-11-27T02:16:18.658Z,99125.13
2018-11-27T02:18:46.924Z,99071.90
2018-11-27T02:21:15.426Z,99028.30
2018-11-27T02:23:43.831Z,99107.25
2018-11-27T02:26:12.114Z,99072.88
2018-11-27T02:28:40.342Z,99073.66
2018-11-27T02:31:08.869Z,99073.86
2018-11-27T02:33:37.131Z,99075.66
2018-11-27T02:36:05.609Z,99066.28
2018-11-27T02:38:34.104Z,99062.04
2018-11-27T02:41:02.390Z,99075.59
2018-11-27T02:43:31.291Z,99077.00
2018-11-27T02:45:59.778Z,99076.41
2018-11-27T02:48:27.882Z,99039.47
2018-11-27T02:50:56.700Z,99034.24
2018-11-27T02:53:25.480Z,99062.89
2018-11-27T02:55:54.070Z,99059.75
2018-11-27T02:58:22.919Z,99086.15
2018-11-27T03:00:51.079Z,99090.69
2018-11-27T03:03:19.517Z,99090.10
2018-11-27T03:05:48.531Z,99087.95
2018-11-27T03:08:16.885Z,99092.66
2018-11-27T03:10:45.171Z,99091.48
2018-11-27T03:13:13.821Z,99094.81
2018-11-27T03:15:42.335Z,99100.88
2018-11-27T03:18:11.400Z,99097.33
2018-11-27T03:20:40.410Z,99105.59
2018-11-27T03:23:09.056Z,99091.63
2018-11-27T03:25:37.488Z,99118.56
2018-11-27T03:28:06.318Z,99117.77
2018-11-27T03:30:34.726Z,99120.33
2018-11-27T03:33:02.897Z,99113.46
2018-11-27T03:35:33.155Z,99113.46
2018-11-27T03:38:01.728Z,99097.67
2018-11-27T03:40:30.352Z,99125.06
2018-11-27T03:42:58.900Z,99130.16
2018-11-27T03:45:27.228Z,99127.25
2018-11-27T03:47:55.801Z,99068.84
2018-11-27T03:50:28.340Z,99128.65
2018-11-27T03:52:56.810Z,99115.54
2018-11-27T03:55:25.281Z,99080.95
2018-11-27T03:57:53.956Z,99141.70
2018-11-27T04:00:26.299Z,99136.67
2018-11-27T04:02:58.360Z,99137.48
2018-11-27T04:05:26.945Z,99140.23
2018-11-27T04:07:55.407Z,99093.77
2018-11-27T04:10:24.047Z,99138.60
2018-11-27T04:12:52.320Z,99142.52
2018-11-27T04:15:20.791Z,99147.98
2018-11-27T04:17:49.750Z,99145.01
2018-11-27T04:20:18.208Z,99148.14
2018-11-27T04:22:46.610Z,99146.74
2018-11-27T04:25:16.657Z,99145.57
2018-11-27T04:27:46.312Z,99150.05
2018-11-27T04:30:15.885Z,99151.84
2018-11-27T04:32:44.450Z,99143.67
2018-11-27T04:35:15.003Z,99151.84
2018-11-27T04:37:43.663Z,99152.59
2018-11-27T04:40:14.480Z,99150.80
2018-11-27T04:42:43.089Z,99150.61
2018-11-27T04:45:18.457Z,99151.30
2018-11-27T04:47:46.933Z,99152.67
2018-11-27T04:50:16.137Z,99156.39
2018-11-27T04:52:44.972Z,99159.56
2018-11-27T04:55:14.754Z,99168.19
2018-11-27T04:57:43.918Z,99166.25
2018-11-27T05:00:16.981Z,99167.46
2018-11-27T05:02:45.177Z,99168.47
2018-11-27T05:05:14.190Z,99169.87
2018-11-27T05:07:42.317Z,99150.70
2018-11-27T05:10:22.420Z,99111.09
2018-11-27T05:12:50.874Z,99178.98
2018-11-27T05:15:20.288Z,99181.33
2018-11-27T05:17:50.624Z,99187.96
2018-11-27T05:20:19.217Z,99177.41
2018-11-27T05:22:47.976Z,99182.45
2018-11-27T05:25:17.448Z,99144.64
2018-11-27T05:27:53.149Z,99190.68
2018-11-27T05:30:23.781Z,99190.45
2018-11-27T05:32:52.310Z,99066.23
2018-11-27T05:35:24.527Z,99187.29
2018-11-27T05:37:53.469Z,99182.61
2018-11-27T05:40:22.679Z,99192.13
2018-11-27T05:42:55.153Z,98957.95
2018-11-27T05:45:24.647Z,99177.66
2018-11-27T05:47:52.949Z,99195.91
2018-11-27T05:50:21.441Z,99197.09
2018-11-27T05:52:50.022Z,99204.92
2018-11-27T05:55:18.643Z,99197.48
2018-11-27T05:57:49.192Z,99231.39
2018-11-27T06:00:33.027Z,99117.61
2018-11-27T06:03:01.986Z,99015.38
2018-11-27T06:05:30.642Z,99202.41
2018-11-27T06:08:00.365Z,99204.56
2018-11-27T06:10:28.889Z,99188.92
2018-11-27T06:12:58.362Z,99148.56
2018-11-27T06:15:26.746Z,99174.00
2018-11-27T06:17:56.488Z,99212.57
2018-11-27T06:20:26.789Z,99223.55
2018-11-27T06:22:55.495Z,99178.62
2018-11-27T06:25:25.010Z,99170.30
2018-11-27T06:28:00.132Z,99215.77
2018-11-27T06:30:29.455Z,99239.39
2018-11-27T06:32:57.638Z,99212.91
2018-11-27T06:35:30.396Z,99185.90
2018-11-27T06:37:58.789Z,99232.26
2018-11-27T06:40:28.381Z,99242.42
2018-11-27T06:42:57.145Z,99247.55
2018-11-27T06:45:25.289Z,99196.02
2018-11-27T06:47:53.805Z,99170.97
2018-11-27T06:50:22.906Z,99228.14
2018-11-27T06:52:51.261Z,99246.92
2018-11-27T06:55:21.366Z,99255.08
2018-11-27T06:57:50.196Z,99257.45
2018-11-27T07:00:27.863Z,99262.00
2018-11-27T07:02:57.232Z,99268.83
2018-11-27T07:05:25.718Z,99274.12
2018-11-27T07:07:54.434Z,99256.87
2018-11-27T07:10:25.470Z,99271.80
2018-11-27T07:12:55.858Z,99279.05
2018-11-27T07:15:24.605Z,99289.44
2018-11-27T07:17:53.096Z,99271.23
2018-11-27T07:20:21.873Z,99298.48
2018-11-27T07:22:50.296Z,99308.09
2018-11-27T07:25:19.151Z,99302.60
2018-11-27T07:27:48.541Z,99305.55
2018-11-27T07:30:18.042Z,99291.28
2018-11-27T07:32:47.012Z,99234.60
2018-11-27T07:35:16.231Z,99311.62
2018-11-27T07:37:44.875Z,99280.35
2018-11-27T07:40:17.146Z,99327.20
2018-11-27T07:42:45.786Z,99339.72
2018-11-27T07:45:15.294Z,99335.02
2018-11-27T07:47:44.121Z,99300.71
2018-11-27T07:50:13.263Z,99223.91
2018-11-27T07:52:42.081Z,99341.09
2018-11-27T07:55:11.604Z,99345.36
2018-11-27T07:57:40.426Z,99321.08
2018-11-27T08:00:18.031Z,99347.29
2018-11-27T08:02:47.635Z,99348.80
2018-11-27T08:05:21.033Z,99338.91
2018-11-27T08:07:51.366Z,99363.63
2018-11-27T08:10:21.796Z,99305.24
2018-11-27T08:12:50.171Z,99352.22
2018-11-27T08:15:22.545Z,99375.23
2018-11-27T08:17:51.269Z,99304.32
2018-11-27T08:20:22.346Z,99346.36
2018-11-27T08:22:50.618Z,99330.48
2018-11-27T08:25:19.121Z,99397.15
2018-11-27T08:27:47.641Z,99401.06
2018-11-27T08:30:17.653Z,99397.22
2018-11-27T08:32:47.060Z,99400.58
2018-11-27T08:35:18.460Z,99399.87
2018-11-27T08:37:47.277Z,99400.09
2018-11-27T08:40:16.739Z,99386.01
2018-11-27T08:42:45.222Z,99364.47
2018-11-27T08:45:16.485Z,99371.13
2018-11-27T08:47:45.252Z,99414.39
2018-11-27T08:50:16.330Z,99419.47
2018-11-27T08:52:46.915Z,99431.23
2018-11-27T08:55:16.675Z,99389.06
2018-11-27T08:57:45.748Z,99396.47
2018-11-27T09:00:16.822Z,99376.08
2018-11-27T09:02:45.577Z,99442.29
2018-11-27T09:05:13.857Z,99444.59
2018-11-27T09:07:42.883Z,99445.97
2018-11-27T09:10:13.888Z,99448.13
2018-11-27T09:12:42.282Z,99408.45
2018-11-27T09:15:12.697Z,99450.84
2018-11-27T09:17:43.381Z,99438.47
2018-11-27T09:20:12.084Z,99452.80
2018-11-27T09:22:40.223Z,99460.06
2018-11-27T09:25:11.555Z,99440.42
2018-11-27T09:27:39.696Z,99464.97
2018-11-27T09:30:19.539Z,99467.73
2018-11-27T09:32:47.854Z,99469.11
2018-11-27T09:35:16.396Z,99410.27
2018-11-27T09:37:45.553Z,99471.53
2018-11-27T09:40:16.152Z,99457.20
2018-11-27T09:42:44.798Z,99475.45
2018-11-27T09:45:17.611Z,99473.88
2018-11-27T09:47:46.893Z,99451.60
2018-11-27T09:50:15.738Z,99480.48
2018-11-27T09:52:44.309Z,99485.77
2018-11-27T09:55:15.415Z,99438.69
2018-11-27T09:57:43.594Z,99481.98
2018-11-27T10:00:28.676Z,99485.25
2018-11-27T10:02:58.711Z,99470.77
2018-11-27T10:05:27.167Z,99424.09
2018-11-27T10:07:55.646Z,99471.86
2018-11-27T10:10:25.037Z,99473.81
2018-11-27T10:12:53.683Z,99500.16
2018-11-27T10:15:25.366Z,99494.30
2018-11-27T10:18:01.102Z,99497.33
2018-11-27T10:20:39.328Z,99499.91
2018-11-27T10:23:09.674Z,99446.81
2018-11-27T10:25:53.211Z,99439.64
2018-11-27T10:28:21.581Z,99488.41
2018-11-27T10:30:50.319Z,99489.32
2018-11-27T10:33:19.225Z,99486.19
2018-11-27T10:35:49.298Z,99417.42
2018-11-27T10:38:18.318Z,99496.03
2018-11-27T10:40:46.915Z,99495.45
2018-11-27T10:43:19.704Z,99495.59
2018-11-27T10:45:43.911Z,99490.11
2018-11-27T10:48:12.833Z,99488.39
2018-11-27T10:50:41.146Z,99493.34
2018-11-27T10:53:10.676Z,99492.97
2018-11-27T10:55:39.143Z,99477.66
2018-11-27T10:58:08.599Z,99496.24
2018-11-27T11:00:41.236Z,99493.66
2018-11-27T11:03:24.590Z,99414.09
2018-11-27T11:05:55.419Z,99492.23
2018-11-27T11:08:24.202Z,99481.31
2018-11-27T11:10:53.214Z,99460.73
2018-11-27T11:13:21.385Z,99489.89
2018-11-27T11:15:49.901Z,99473.03
2018-11-27T11:18:18.062Z,99495.81
2018-11-27T11:20:46.787Z,99459.58
2018-11-27T11:23:15.776Z,99488.16
2018-11-27T11:25:44.610Z,99494.77
2018-11-27T11:28:12.515Z,99497.84
2018-11-27T11:30:41.048Z,99507.20
2018-11-27T11:33:09.781Z,99508.57
2018-11-27T11:35:37.945Z,99461.31
2018-11-27T11:38:06.581Z,99503.48
2018-11-27T11:40:35.211Z,99516.22
2018-11-27T11:43:03.887Z,99521.67
2018-11-27T11:45:32.077Z,99519.20
2018-11-27T11:48:00.253Z,99517.80
2018-11-27T11:50:30.773Z,99437.59
2018-11-27T11:53:01.797Z,99524.96
2018-11-27T11:55:30.498Z,99520.99
2018-11-27T11:57:58.627Z,99526.63
2018-11-27T12:00:33.703Z,99528.13
2018-11-27T12:03:02.390Z,99510.63
2018-11-27T12:05:31.099Z,99510.69
2018-11-27T12:07:59.532Z,99535.78
2018-11-27T12:10:28.151Z,99534.52
2018-11-27T12:12:56.749Z,99472.19
2018-11-27T12:15:25.100Z,99535.70
2018-11-27T12:17:53.267Z,99516.45
2018-11-27T12:20:21.387Z,99535.86
2018-11-27T12:22:51.617Z,99545.30
2018-11-27T12:25:24.285Z,99545.10
2018-11-27T12:27:49.030Z,99549.22
2018-11-27T12:30:21.041Z,99547.77
2018-11-27T12:32:49.261Z,99509.52
2018-11-27T12:35:18.163Z,99556.45
2018-11-27T12:37:47.058Z,99560.18
2018-11-27T12:40:16.130Z,99559.16
2018-11-27T12:42:44.345Z,99512.44
2018-11-27T12:45:14.823Z,99566.34
2018-11-27T12:47:43.764Z,99484.41
2018-11-27T12:50:19.122Z,99560.80
2018-11-27T12:52:47.541Z,99567.40
2018-11-27T12:55:16.866Z,99564.39
2018-11-27T12:57:45.002Z,99564.43
2018-11-27T13:00:18.780Z,99555.84
2018-11-27T13:02:47.247Z,99566.22
2018-11-27T13:05:16.884Z,99565.06
2018-11-27T13:07:47.332Z,99538.64
2018-11-27T13:10:16.680Z,99568.85
2018-11-27T13:12:45.979Z,99567.83
2018-11-27T13:15:15.562Z,99566.87
2018-11-27T13:17:43.874Z,99563.41
2018-11-27T13:20:14.373Z,99597.77
2018-11-27T13:22:43.480Z,99562.61
2018-11-27T13:25:13.572Z,99563.77
2018-11-27T13:27:41.828Z,99569.97
2018-11-27T13:30:14.610Z,99575.51
2018-11-27T13:32:43.166Z,99578.80
2018-11-27T13:35:12.560Z,99576.80
2018-11-27T13:37:41.191Z,99578.11
2018-11-27T13:40:10.748Z,99577.58
2018-11-27T13:42:39.594Z,99583.28
2018-11-27T13:45:10.477Z,99585.98
2018-11-27T13:47:38.845Z,99585.56
2018-11-27T13:50:15.973Z,99569.03
2018-11-27T13:52:44.181Z,99584.52
2018-11-27T13:55:15.248Z,99590.80
2018-11-27T13:57:43.963Z,99570.98
2018-11-27T14:00:13.529Z,99596.78
2018-11-27T14:02:42.582Z,99596.24
2018-11-27T14:05:14.566Z,99598.61
2018-11-27T14:07:43.067Z,99595.88
2018-11-27T14:10:12.165Z,99549.91
2018-11-27T14:12:40.910Z,99602.14
2018-11-27T14:15:20.104Z,99599.61
2018-11-27T14:17:48.996Z,99605.45
2018-11-27T14:20:17.280Z,99602.95
2018-11-27T14:22:50.731Z,99613.36
2018-11-27T14:25:24.326Z,99612.42
2018-11-27T14:27:53.158Z,99621.28
2018-11-27T14:30:24.087Z,99656.56
2018-11-27T14:32:53.724Z,99620.17
2018-11-27T14:35:23.823Z,99625.64
2018-11-27T14:37:54.344Z,99625.99
2018-11-27T14:40:24.953Z,99635.58
2018-11-27T14:42:54.795Z,99626.25
2018-11-27T14:45:26.184Z,99638.56
2018-11-27T14:47:56.111Z,99636.24
2018-11-27T14:50:25.100Z,99625.89
2018-11-27T14:52:54.961Z,99629.69
2018-11-27T14:55:28.586Z,99605.55
2018-11-27T14:57:57.454Z,99583.98
2018-11-27T15:00:26.253Z,99603.89
2018-11-27T15:02:55.731Z,99626.09
2018-11-27T15:05:31.795Z,99550.48
2018-11-27T15:08:00.446Z,99634.08
2018-11-27T15:10:28.721Z,99574.47
2018-11-27T15:12:56.830Z,99631.91
2018-11-27T15:15:25.642Z,99637.58
2018-11-27T15:17:54.126Z,99640.72
2018-11-27T15:20:24.010Z,99646.02
2018-11-27T15:22:52.693Z,99654.60
2018-11-27T15:25:21.126Z,99649.91
2018-11-27T15:27:49.531Z,99655.00
2018-11-27T15:30:20.929Z,99658.34
2018-11-27T15:32:49.522Z,99515.91
2018-11-27T15:35:18.162Z,99666.59
2018-11-27T15:37:46.801Z,99659.55
2018-11-27T15:40:18.451Z,99665.09
2018-11-27T15:42:46.749Z,99669.00
2018-11-27T15:45:18.555Z,99665.52
2018-11-27T15:47:47.441Z,99437.72
2018-11-27T15:50:15.804Z,99618.70
2018-11-27T15:52:46.776Z,99664.70
2018-11-27T15:55:17.652Z,99672.52
2018-11-27T15:57:46.697Z,99673.67
2018-11-27T16:00:18.081Z,99584.48
2018-11-27T16:02:46.620Z,99677.24
2018-11-27T16:05:15.670Z,99674.14
2018-11-27T16:07:44.058Z,99681.98
2018-11-27T16:10:14.984Z,99652.89
2018-11-27T16:12:44.617Z,99679.82
2018-11-27T16:15:13.999Z,99679.05
2018-11-27T16:17:42.435Z,99682.79
2018-11-27T16:20:15.128Z,99686.09
2018-11-27T16:22:44.317Z,99690.20
2018-11-27T16:25:15.440Z,99689.80
2018-11-27T16:27:48.450Z,99693.92
2018-11-27T16:30:19.609Z,99700.78
2018-11-27T16:32:48.811Z,99692.75
2018-11-27T16:35:17.307Z,99699.64
2018-11-27T16:37:48.900Z,99701.38
2018-11-27T16:40:21.657Z,99705.69
2018-11-27T16:42:51.107Z,99704.72
2018-11-27T16:45:20.544Z,99712.38
2018-11-27T16:47:49.383Z,99793.98
2018-11-27T16:50:18.444Z,99718.87
2018-11-27T16:52:51.815Z,99724.73
2018-11-27T17:02:15.294Z,99730.41
2018-11-27T17:04:45.221Z,99731.42
2018-11-27T17:07:14.798Z,99715.83
2018-11-27T17:09:44.320Z,99737.88
2018-11-27T17:12:18.415Z,99733.17
2018-11-27T17:14:47.934Z,99741.22
2018-11-27T17:17:17.818Z,99707.30
2018-11-27T17:19:47.361Z,99746.70
2018-11-27T17:22:16.994Z,99679.17
2018-11-27T17:24:46.935Z,99737.34
2018-11-27T17:27:16.445Z,99737.53
2018-11-27T17:29:46.039Z,99698.54
2018-11-27T17:32:16.046Z,99745.40
2018-11-27T17:34:49.874Z,99737.76
2018-11-27T17:37:19.814Z,99738.55
2018-11-27T17:39:49.378Z,99688.23
2018-11-27T17:42:19.040Z,99736.22
2018-11-27T17:44:49.802Z,99741.70
2018-11-27T17:47:19.327Z,99747.93
2018-11-27T17:49:48.890Z,99742.84
2018-11-27T17:52:19.256Z,99748.89
2018-11-27T17:54:50.011Z,99752.98
2018-11-27T17:57:19.581Z,99763.75
2018-11-27T17:59:49.614Z,99761.77
2018-11-27T18:02:19.262Z,99761.58
2018-11-27T18:04:48.872Z,99761.58
2018-11-27T18:07:19.033Z,99707.31
2018-11-27T18:09:48.742Z,99683.49
2018-11-27T18:12:18.337Z,99778.57
2018-11-27T18:14:48.411Z,99787.94
2018-11-27T18:17:18.272Z,99794.61
2018-11-27T18:19:47.830Z,99764.16
2018-11-27T18:22:17.681Z,99815.14
2018-11-27T18:24:47.165Z,99783.56
2018-11-27T18:27:16.854Z,99812.01
2018-11-27T18:29:46.776Z,99804.77
2018-11-27T18:32:16.590Z,99805.34
2018-11-27T18:34:46.219Z,99794.38
2018-11-27T18:37:16.062Z,99790.09
2018-11-27T18:39:45.563Z,99788.34
2018-11-27T18:42:15.108Z,99795.19
2018-11-27T18:44:45.038Z,99790.91
2018-11-27T18:47:14.602Z,99795.59
2018-11-27T18:49:44.182Z,99804.42
2018-11-27T18:52:14.018Z,99807.93
2018-11-27T18:54:44.235Z,99803.06
2018-11-27T18:57:13.959Z,99835.14
2018-11-27T18:59:43.914Z,99798.95
2018-11-27T19:02:13.426Z,99829.66
2018-11-27T19:04:42.970Z,99809.70
2018-11-27T19:07:13.137Z,99811.86
2018-11-27T19:09:42.682Z,99810.30
2018-11-27T19:12:12.173Z,99820.25
2018-11-27T19:14:42.159Z,99825.16
2018-11-27T19:17:11.768Z,99832.98
2018-11-27T19:19:41.266Z,99832.58
2018-11-27T19:22:11.274Z,99836.90
2018-11-27T19:24:40.830Z,99835.13
2018-11-27T19:27:11.057Z,99846.88
2018-11-27T19:29:41.025Z,99840.22
2018-11-27T19:32:11.113Z,99846.88
2018-11-27T19:34:40.638Z,99843.93
2018-11-27T19:37:10.492Z,99733.56
2018-11-27T19:39:40.574Z,99865.27
2018-11-27T19:42:10.194Z,99860.57
2018-11-27T19:44:40.075Z,99850.78
2018-11-27T19:47:09.633Z,99868.18
2018-11-27T19:49:39.164Z,99859.56
2018-11-27T19:52:12.557Z,99867.39
2018-11-27T19:54:42.118Z,99868.18
2018-11-27T19:57:12.308Z,99859.38
2018-11-27T19:59:41.946Z,99871.53
2018-11-27T20:02:11.549Z,99872.50
2018-11-27T20:04:41.382Z,99872.29
2018-11-27T20:07:10.941Z,99862.52
2018-11-27T20:09:40.860Z,99860.36
2018-11-27T20:12:10.738Z,99846.09
2018-11-27T20:14:40.270Z,99875.23
2018-11-27T20:17:09.855Z,99874.23
2018-11-27T20:19:40.242Z,99879.35
2018-11-27T20:22:09.753Z,99887.93
2018-11-27T20:24:39.334Z,99885.59
2018-11-27T20:27:09.234Z,99915.54
2018-11-27T20:29:39.436Z,99885.80
2018-11-27T20:32:08.938Z,99891.06
2018-11-27T20:34:38.896Z,99850.81
2018-11-27T20:37:08.458Z,99894.37
2018-11-27T20:39:38.046Z,99897.91
2018-11-27T20:42:08.132Z,99894.20
2018-11-27T20:44:37.626Z,99893.41
2018-11-27T20:47:08.204Z,99889.52
2018-11-27T20:49:38.058Z,99890.09
2018-11-27T20:52:07.654Z,99924.91
2018-11-27T20:54:37.807Z,99892.07
2018-11-27T20:57:07.723Z,99893.23
2018-11-27T20:59:37.188Z,99895.00
2018-11-27T21:02:06.862Z,99898.34
2018-11-27T21:04:36.654Z,99857.27
2018-11-27T21:07:06.579Z,99898.52
2018-11-27T21:09:36.417Z,99896.39
2018-11-27T21:12:06.295Z,99893.05
2018-11-27T21:14:36.025Z,99756.81
2018-11-27T21:17:05.878Z,99895.78
2018-11-27T21:19:35.899Z,99898.52
2018-11-27T21:22:05.521Z,99902.05
2018-11-27T21:24:35.015Z,99903.60
2018-11-27T21:27:05.215Z,99656.19
2018-11-27T21:29:34.798Z,99899.12
2018-11-27T21:32:04.393Z,99899.52
2018-11-27T21:34:34.221Z,99893.66
2018-11-27T21:37:03.808Z,99905.97
2018-11-27T21:39:33.347Z,99907.73
2018-11-27T21:42:03.909Z,99897.18
2018-11-27T21:44:34.078Z,99894.83
2018-11-27T21:47:03.971Z,99887.37
2018-11-27T21:49:35.118Z,99886.80
2018-11-27T21:52:05.176Z,99891.50
2018-11-27T21:54:36.278Z,99889.55
2018-11-27T21:57:06.881Z,99892.47
2018-11-27T21:59:37.252Z,99898.34
2018-11-27T22:02:07.396Z,99893.44
2018-11-27T22:04:37.801Z,99904.22
2018-11-27T22:07:07.912Z,99902.05
2018-11-27T22:09:37.933Z,99906.17
2018-11-27T22:12:07.915Z,99857.45
2018-11-27T22:14:38.047Z,99892.06
2018-11-27T22:17:08.126Z,99915.75
2018-11-27T22:19:39.607Z,99921.22
2018-11-27T22:22:09.723Z,99919.24
2018-11-27T22:24:39.442Z,99917.70
2018-11-27T22:27:09.491Z,99921.41
2018-11-27T22:29:40.290Z,99911.25
2018-11-27T22:32:10.572Z,99917.13
2018-11-27T22:34:40.691Z,99913.59
2018-11-27T22:37:10.494Z,99917.13
2018-11-27T22:39:40.962Z,99914.96
2018-11-27T22:42:11.124Z,99911.43
2018-11-27T22:44:42.029Z,99893.43
2018-11-27T22:47:11.955Z,99916.71
2018-11-27T22:49:42.590Z,99914.77
2018-11-27T22:52:12.298Z,99909.87
2018-11-27T22:54:42.734Z,99904.98
2018-11-27T22:57:12.756Z,99906.16
2018-11-27T22:59:43.040Z,99906.34
2018-11-27T23:02:12.922Z,99912.79
2018-11-27T23:04:42.906Z,99853.55
2018-11-27T23:07:17.605Z,99906.16
2018-11-27T23:09:48.001Z,99899.71
2018-11-27T23:12:17.992Z,99904.00
2018-11-27T23:14:47.626Z,99900.69
2018-11-27T23:17:17.135Z,99910.44
2018-11-27T23:19:46.929Z,99906.73
2018-11-27T23:22:16.474Z,99909.67
2018-11-27T23:24:46.606Z,99903.23
2018-11-27T23:27:17.029Z,99907.13
2018-11-27T23:29:47.301Z,99901.86
2018-11-27T23:32:16.766Z,99908.87
2018-11-27T23:34:47.246Z,99828.70
2018-11-27T23:37:17.985Z,99900.49
2018-11-27T23:39:48.999Z,99906.54
2018-11-27T23:42:19.034Z,99910.64
2018-11-27T23:44:48.528Z,99901.45
2018-11-27T23:47:18.138Z,99901.85
2018-11-27T23:49:47.973Z,99912.59
2018-11-27T23:52:17.951Z,99912.98
2018-11-27T23:54:47.482Z,99921.41
2018-11-27T23:57:17.905Z,99916.69
2018-11-27T23:59:48.856Z,99912.00
